Time;durP1;ratioP1;P1;durP2;ratioP2;P2;SDS_P1;SDS_P2;PMS_P1;PMS_P2;Temp;Humidity;BMP_temperature;BMP_pressure;BME280_temperature;BME280_humidity;BME280_pressure;Samples;Min_cycle;Max_cycle;Signal;HPM_P1;HPM_P2
2024/01/02 00:02:03;;;;;;;6.45;2.60;;;3.30;61.70;;;;;;5034269;28;20536;-79
2024/01/02 00:04:32;;;;;;;5.90;3.60;;;3.30;62.20;;;;;;5034291;28;20230;-79
2024/01/02 00:06:58;;;;;;;6.20;3.42;;;3.30;62.30;;;;;;5034198;28;20523;-79
2024/01/02 00:09:25;;;;;;;12.55;7.10;;;3.30;62.10;;;;;;5033800;28;20310;-80
2024/01/02 00:11:52;;;;;;;14.23;6.05;;;3.30;62.20;;;;;;5034161;28;20227;-80
2024/01/02 00:14:19;;;;;;;12.88;6.13;;;3.40;62.40;;;;;;5033917;28;20255;-80
2024/01/02 00:16:46;;;;;;;9.52;4.28;;;3.30;62.10;;;;;;5033564;28;20247;-79
2024/01/02 00:19:15;;;;;;;9.82;4.38;;;3.30;61.90;;;;;;5033950;28;20238;-79
2024/01/02 00:21:43;;;;;;;8.38;3.25;;;3.30;62.00;;;;;;5033640;28;20230;-79
2024/01/02 00:24:10;;;;;;;5.82;3.28;;;3.30;62.00;;;;;;5033407;28;20241;-79
2024/01/02 00:26:37;;;;;;;7.38;3.15;;;3.30;62.00;;;;;;5033468;28;20217;-79
2024/01/02 00:29:03;;;;;;;3.50;1.90;;;3.30;62.30;;;;;;5033777;28;20191;-79
2024/01/02 00:31:30;;;;;;;4.00;2.25;;;3.30;61.90;;;;;;5033989;28;20286;-79
2024/01/02 00:33:57;;;;;;;5.30;2.33;;;3.20;61.50;;;;;;5033400;28;20274;-78
2024/01/02 00:36:24;;;;;;;4.20;2.03;;;3.30;61.90;;;;;;5033625;28;20315;-79
2024/01/02 00:38:52;;;;;;;4.05;1.40;;;3.30;61.90;;;;;;5033819;28;20192;-79
2024/01/02 00:41:19;;;;;;;4.60;2.00;;;3.20;62.00;;;;;;5033598;28;20234;-79
2024/01/02 00:43:46;;;;;;;3.45;2.10;;;3.30;62.10;;;;;;5033575;28;20608;-79
2024/01/02 00:46:13;;;;;;;4.15;1.60;;;3.30;61.80;;;;;;5033428;28;20258;-80
2024/01/02 00:48:40;;;;;;;4.47;1.73;;;3.40;61.30;;;;;;5032878;28;20225;-80
2024/01/02 00:51:07;;;;;;;3.92;2.72;;;3.40;60.90;;;;;;5033171;28;20282;-79
2024/01/02 00:53:34;;;;;;;5.40;2.13;;;3.30;60.80;;;;;;5033121;28;20287;-79
2024/01/02 00:56:02;;;;;;;3.30;1.33;;;3.40;60.70;;;;;;5032867;28;20191;-80
2024/01/02 00:58:29;;;;;;;3.67;1.25;;;3.30;61.00;;;;;;5033774;28;20361;-79
2024/01/02 01:00:56;;;;;;;5.32;2.88;;;3.30;61.30;;;;;;5033018;28;20283;-80
2024/01/02 01:03:23;;;;;;;3.35;1.77;;;3.20;61.70;;;;;;5033371;28;20223;-79
2024/01/02 01:05:50;;;;;;;5.10;1.50;;;3.20;61.80;;;;;;5033519;28;20283;-79
2024/01/02 01:08:17;;;;;;;3.38;1.80;;;3.20;61.90;;;;;;5033915;28;20195;-79
2024/01/02 01:10:43;;;;;;;3.47;1.85;;;3.10;62.10;;;;;;5039230;28;20222;-79
2024/01/02 01:13:12;;;;;;;3.13;1.35;;;3.20;62.40;;;;;;5039867;28;20246;-79
2024/01/02 01:15:39;;;;;;;2.65;1.38;;;3.30;62.00;;;;;;5039792;28;20274;-79
2024/01/02 01:18:06;;;;;;;2.83;1.42;;;3.30;61.60;;;;;;5039753;28;20211;-79
2024/01/02 01:20:33;;;;;;;3.20;1.40;;;3.40;61.50;;;;;;5038882;28;20190;-79
2024/01/02 01:23:00;;;;;;;3.00;1.25;;;3.40;61.30;;;;;;5039658;28;20290;-79
2024/01/02 01:25:27;;;;;;;3.50;1.40;;;3.30;60.90;;;;;;5039851;28;20286;-79
2024/01/02 01:27:53;;;;;;;3.35;1.90;;;3.30;61.10;;;;;;5039740;28;20290;-79
2024/01/02 01:30:22;;;;;;;3.50;1.75;;;3.30;61.30;;;;;;5039373;28;20234;-79
2024/01/02 01:32:49;;;;;;;3.75;1.67;;;3.30;61.20;;;;;;5039377;28;20227;-79
2024/01/02 01:35:16;;;;;;;5.43;2.55;;;3.40;61.00;;;;;;5039187;28;20593;-79
2024/01/02 01:37:42;;;;;;;4.95;2.58;;;3.30;60.50;;;;;;5039479;28;20306;-79
2024/01/02 01:40:10;;;;;;;4.03;1.48;;;3.30;60.20;;;;;;5039333;28;20270;-79
2024/01/02 01:42:37;;;;;;;2.90;1.63;;;3.40;59.80;;;;;;5039124;28;20215;-79
2024/01/02 01:45:05;;;;;;;5.55;2.10;;;3.30;59.70;;;;;;5039124;28;20199;-79
2024/01/02 01:47:34;;;;;;;5.35;1.80;;;3.30;60.40;;;;;;5039286;28;20304;-79
2024/01/02 01:50:01;;;;;;;5.63;1.70;;;3.30;59.70;;;;;;5039485;28;20245;-79
2024/01/02 01:52:32;;;;;;;4.18;1.85;;;3.30;59.70;;;;;;5039414;28;20291;-79
2024/01/02 01:55:02;;;;;;;3.95;1.38;;;3.30;60.10;;;;;;5039447;28;20225;-79
2024/01/02 01:57:29;;;;;;;4.18;1.90;;;3.40;59.60;;;;;;5039294;28;20207;-79
2024/01/02 01:59:58;;;;;;;3.17;1.40;;;3.40;59.60;;;;;;5038785;28;20184;-79
2024/01/02 02:02:25;;;;;;;3.67;1.30;;;3.40;59.40;;;;;;5039704;28;20195;-79
2024/01/02 02:04:54;;;;;;;2.28;1.10;;;3.30;59.80;;;;;;5039304;28;20278;-79
2024/01/02 02:07:21;;;;;;;2.45;1.15;;;3.30;59.80;;;;;;5039404;28;20245;-79
2024/01/02 02:09:48;;;;;;;2.70;1.17;;;3.30;60.10;;;;;;5039142;28;20290;-79
2024/01/02 02:12:15;;;;;;;5.03;1.50;;;3.40;59.90;;;;;;5038559;28;20222;-79
2024/01/02 02:14:42;;;;;;;4.88;1.75;;;3.40;60.80;;;;;;5039180;28;20615;-79
2024/01/02 02:17:09;;;;;;;3.80;2.08;;;3.40;59.80;;;;;;5039069;28;20745;-79
2024/01/02 02:19:36;;;;;;;9.38;3.75;;;3.40;59.80;;;;;;5038910;28;20261;-80
2024/01/02 02:22:06;;;;;;;4.88;2.40;;;3.40;59.70;;;;;;5035045;28;20219;-80
2024/01/02 02:24:34;;;;;;;4.95;2.00;;;3.40;59.90;;;;;;5035801;28;20222;-80
2024/01/02 02:27:03;;;;;;;7.50;2.35;;;3.40;60.10;;;;;;5036139;28;20641;-80
2024/01/02 02:29:30;;;;;;;7.68;2.90;;;3.40;60.10;;;;;;5035718;28;20223;-80
2024/01/02 02:31:57;;;;;;;6.35;3.10;;;3.50;60.20;;;;;;5035025;28;20194;-80
2024/01/02 02:34:23;;;;;;;3.90;2.30;;;3.50;60.00;;;;;;5035639;28;20187;-79
2024/01/02 02:36:50;;;;;;;5.70;2.00;;;3.60;59.70;;;;;;5035520;28;20222;-79
2024/01/02 02:39:17;;;;;;;5.00;1.73;;;3.60;59.50;;;;;;5035548;28;20231;-80
2024/01/02 02:41:45;;;;;;;4.28;1.30;;;3.70;59.50;;;;;;5035490;28;20227;-79
2024/01/02 02:44:12;;;;;;;8.25;1.65;;;3.70;59.30;;;;;;5035662;28;20234;-79
2024/01/02 02:46:39;;;;;;;3.05;1.30;;;3.70;59.30;;;;;;5034999;28;20318;-79
2024/01/02 02:49:06;;;;;;;3.30;1.30;;;3.80;59.20;;;;;;5035362;28;20286;-80
2024/01/02 02:51:33;;;;;;;3.55;1.20;;;3.80;59.00;;;;;;5035276;28;20227;-80
2024/01/02 02:54:00;;;;;;;2.92;1.00;;;3.80;59.00;;;;;;5035535;28;20204;-79
2024/01/02 02:56:27;;;;;;;4.45;1.88;;;3.90;58.70;;;;;;5035257;28;20535;-79
2024/01/02 02:58:55;;;;;;;2.55;1.10;;;3.80;58.70;;;;;;5035376;28;20276;-80
2024/01/02 03:01:23;;;;;;;2.88;1.85;;;3.70;59.00;;;;;;5035088;28;20227;-80
2024/01/02 03:03:50;;;;;;;2.45;1.30;;;3.70;59.90;;;;;;5035012;28;20235;-80
2024/01/02 03:06:17;;;;;;;3.00;1.58;;;3.70;59.40;;;;;;5035051;28;20268;-80
2024/01/02 03:08:44;;;;;;;4.38;1.52;;;3.70;59.50;;;;;;5035305;28;20287;-78
2024/01/02 03:11:11;;;;;;;3.97;1.70;;;3.80;59.70;;;;;;5034562;28;20220;-78
2024/01/02 03:13:37;;;;;;;3.45;1.27;;;3.80;59.50;;;;;;5035205;28;20282;-78
2024/01/02 03:16:09;;;;;;;2.65;1.48;;;3.70;59.40;;;;;;5034504;28;20277;-79
2024/01/02 03:18:36;;;;;;;3.60;1.60;;;3.80;59.90;;;;;;5034937;28;20203;-78
2024/01/02 03:21:03;;;;;;;3.97;1.98;;;3.80;60.00;;;;;;5034753;28;20227;-78
2024/01/02 03:23:30;;;;;;;3.65;1.33;;;3.80;60.20;;;;;;5034193;28;20230;-78
2024/01/02 03:25:57;;;;;;;2.95;1.70;;;3.80;60.40;;;;;;5034338;28;20283;-78
2024/01/02 03:28:24;;;;;;;2.83;1.30;;;3.80;60.50;;;;;;5035087;28;20242;-79
2024/01/02 03:30:51;;;;;;;4.78;1.80;;;3.80;60.40;;;;;;5034941;28;20283;-79
2024/01/02 03:33:18;;;;;;;2.88;1.50;;;3.80;60.60;;;;;;5034551;28;20278;-79
2024/01/02 03:35:45;;;;;;;2.30;1.40;;;3.90;60.70;;;;;;5034427;28;20188;-79
2024/01/02 03:38:12;;;;;;;4.03;1.83;;;3.90;60.40;;;;;;5034677;28;20238;-79
2024/01/02 03:40:39;;;;;;;4.03;1.70;;;3.90;60.30;;;;;;5034292;28;20226;-79
2024/01/02 03:43:06;;;;;;;2.92;1.65;;;3.90;60.30;;;;;;5034721;28;20196;-79
2024/01/02 03:45:33;;;;;;;4.05;1.92;;;3.90;60.20;;;;;;5034322;28;20286;-79
2024/01/02 03:48:01;;;;;;;3.92;1.83;;;4.00;60.10;;;;;;5034138;28;20270;-80
2024/01/02 03:50:29;;;;;;;3.33;1.45;;;4.00;59.80;;;;;;5034234;28;20219;-80
2024/01/02 03:52:56;;;;;;;3.67;2.35;;;4.00;59.50;;;;;;5034442;28;20199;-79
2024/01/02 03:55:23;;;;;;;8.98;3.05;;;4.00;59.50;;;;;;5034038;28;20195;-79
2024/01/02 03:57:50;;;;;;;7.30;3.78;;;3.90;59.40;;;;;;5034490;28;20306;-79
2024/01/02 04:00:18;;;;;;;4.25;2.20;;;3.90;59.90;;;;;;5034323;28;20286;-79
2024/01/02 04:02:44;;;;;;;5.72;2.13;;;3.90;60.20;;;;;;5033742;28;20631;-79
2024/01/02 04:05:11;;;;;;;3.10;1.50;;;4.00;60.50;;;;;;5034027;28;20726;-79
2024/01/02 04:07:39;;;;;;;4.28;1.85;;;4.00;60.40;;;;;;5033905;28;20685;-78
2024/01/02 04:10:07;;;;;;;3.38;1.35;;;4.00;60.20;;;;;;5034177;28;20191;-79
2024/01/02 04:12:34;;;;;;;3.40;1.90;;;4.00;59.20;;;;;;5034071;28;20564;-79
2024/01/02 04:15:01;;;;;;;25.38;9.35;;;4.10;58.90;;;;;;5033662;28;20662;-79
2024/01/02 04:17:28;;;;;;;9.90;5.05;;;4.00;58.90;;;;;;5033390;28;20298;-79
2024/01/02 04:19:55;;;;;;;7.20;2.75;;;4.00;59.00;;;;;;5034189;28;20195;-79
2024/01/02 04:22:22;;;;;;;3.58;1.85;;;4.10;59.00;;;;;;5034014;28;20191;-79
2024/01/02 04:24:50;;;;;;;3.10;1.95;;;4.10;58.70;;;;;;5033482;28;20729;-79
2024/01/02 04:27:17;;;;;;;2.70;1.30;;;4.10;59.10;;;;;;5033245;28;20227;-79
2024/01/02 04:29:44;;;;;;;2.88;1.63;;;4.20;59.30;;;;;;5034067;28;20285;-78
2024/01/02 04:32:11;;;;;;;3.58;2.00;;;4.20;58.80;;;;;;5033948;28;20286;-79
2024/01/02 04:34:38;;;;;;;3.47;1.63;;;4.20;59.10;;;;;;5033370;28;20223;-79
2024/01/02 04:37:05;;;;;;;4.20;1.35;;;4.30;58.70;;;;;;5033883;28;20235;-79
2024/01/02 04:39:32;;;;;;;3.92;1.13;;;4.20;58.60;;;;;;5033899;28;20288;-80
2024/01/02 04:42:01;;;;;;;3.00;1.30;;;4.20;58.80;;;;;;5033681;28;20191;-79
2024/01/02 04:44:28;;;;;;;3.05;1.45;;;4.30;59.20;;;;;;5032325;28;20223;-79
2024/01/02 04:46:55;;;;;;;2.60;1.30;;;4.30;58.60;;;;;;5033639;28;20227;-78
2024/01/02 04:49:22;;;;;;;3.35;1.60;;;4.30;58.40;;;;;;5033626;28;20290;-79
2024/01/02 04:51:49;;;;;;;5.10;1.85;;;4.30;58.30;;;;;;5033501;28;20261;-80
2024/01/02 04:54:17;;;;;;;4.00;1.70;;;4.40;57.60;;;;;;5033760;28;20296;-79
2024/01/02 04:56:44;;;;;;;3.15;1.17;;;4.40;57.60;;;;;;5033143;28;20190;-80
2024/01/02 04:59:12;;;;;;;5.03;1.70;;;4.40;57.80;;;;;;5033034;28;20253;-80
2024/01/02 05:01:39;;;;;;;3.95;1.83;;;4.40;57.70;;;;;;5032975;28;20278;-79
2024/01/02 05:04:06;;;;;;;4.45;2.72;;;4.40;56.80;;;;;;5033423;28;20278;-79
2024/01/02 05:06:33;;;;;;;3.97;1.90;;;4.40;56.60;;;;;;5033080;28;20227;-80
2024/01/02 05:09:00;;;;;;;4.55;1.45;;;4.40;56.60;;;;;;5032756;28;20689;-80
2024/01/02 05:11:27;;;;;;;4.57;2.22;;;4.40;56.90;;;;;;5033069;28;20286;-80
2024/01/02 05:13:54;;;;;;;2.90;1.67;;;4.50;57.30;;;;;;5033076;28;20278;-80
2024/01/02 05:16:23;;;;;;;3.88;1.48;;;4.50;57.10;;;;;;5033063;28;20278;-80
2024/01/02 05:18:50;;;;;;;3.30;1.60;;;4.50;57.10;;;;;;5033216;28;20264;-82
2024/01/02 05:21:17;;;;;;;3.42;1.48;;;4.50;57.40;;;;;;5032569;28;20223;-79
2024/01/02 05:23:44;;;;;;;4.55;1.75;;;4.50;57.40;;;;;;5033328;28;20195;-80
2024/01/02 05:26:11;;;;;;;4.20;1.30;;;4.50;57.40;;;;;;5032896;28;20724;-80
2024/01/02 05:28:38;;;;;;;5.22;1.70;;;4.50;57.60;;;;;;5032740;28;20196;-80
2024/01/02 05:31:05;;;;;;;4.75;1.90;;;4.50;57.90;;;;;;5032084;28;20223;-80
2024/01/02 05:33:33;;;;;;;2.60;1.50;;;4.50;57.60;;;;;;5032945;28;20207;-80
2024/01/02 05:36:00;;;;;;;2.90;1.50;;;4.60;57.50;;;;;;5033170;28;20227;-80
2024/01/02 05:38:27;;;;;;;2.78;1.40;;;4.50;57.40;;;;;;5033275;28;20311;-79
2024/01/02 05:40:54;;;;;;;2.45;1.40;;;4.50;57.70;;;;;;5033283;28;20218;-79
2024/01/02 05:43:21;;;;;;;4.50;1.95;;;4.60;57.30;;;;;;5033202;28;20287;-79
2024/01/02 05:45:47;;;;;;;7.15;2.70;;;4.60;56.60;;;;;;5032080;28;20187;-80
2024/01/02 05:48:14;;;;;;;3.85;1.88;;;4.60;56.50;;;;;;5032839;28;20322;-79
2024/01/02 05:50:42;;;;;;;3.55;1.65;;;4.50;56.70;;;;;;5033041;28;20283;-80
2024/01/02 05:53:10;;;;;;;2.78;1.30;;;4.60;55.90;;;;;;5032674;28;20230;-80
2024/01/02 05:55:37;;;;;;;2.45;1.00;;;4.60;55.00;;;;;;5034573;28;20560;-80
2024/01/02 05:58:04;;;;;;;2.90;1.13;;;4.60;54.80;;;;;;5036245;28;20562;-80
2024/01/02 06:00:31;;;;;;;3.45;1.30;;;4.70;53.70;;;;;;5035934;28;20262;-80
2024/01/02 06:02:58;;;;;;;3.35;1.15;;;4.70;53.80;;;;;;5036774;28;20222;-80
2024/01/02 06:05:25;;;;;;;2.95;1.30;;;4.70;53.80;;;;;;5036635;28;20203;-79
2024/01/02 06:07:53;;;;;;;3.45;1.45;;;4.70;54.20;;;;;;5036556;28;20231;-78
2024/01/02 06:10:20;;;;;;;3.38;1.70;;;4.70;54.20;;;;;;5035689;28;20198;-78
2024/01/02 06:12:47;;;;;;;3.15;1.45;;;4.70;54.30;;;;;;5036102;28;20636;-78
2024/01/02 06:15:15;;;;;;;3.78;1.77;;;4.70;54.70;;;;;;5036361;28;20230;-78
2024/01/02 06:17:42;;;;;;;3.75;1.63;;;4.80;54.90;;;;;;5036265;28;20235;-78
2024/01/02 06:20:10;;;;;;;5.57;2.00;;;4.90;54.60;;;;;;5036183;28;20286;-79
2024/01/02 06:22:37;;;;;;;3.30;1.52;;;4.80;54.50;;;;;;5035999;28;20665;-78
2024/01/02 06:25:08;;;;;;;3.47;1.88;;;4.80;53.60;;;;;;5035978;28;20191;-79
2024/01/02 06:27:35;;;;;;;2.70;1.40;;;4.80;53.50;;;;;;5036561;28;20237;-79
2024/01/02 06:30:03;;;;;;;5.35;1.25;;;4.90;53.60;;;;;;5036267;28;20195;-79
2024/01/02 06:32:30;;;;;;;2.22;1.10;;;4.90;53.00;;;;;;5035115;28;20183;-79
2024/01/02 06:34:57;;;;;;;2.63;1.50;;;4.90;52.70;;;;;;5035759;28;20233;-79
2024/01/02 06:37:25;;;;;;;2.55;1.13;;;4.90;52.80;;;;;;5036008;28;20193;-79
2024/01/02 06:39:52;;;;;;;3.38;1.40;;;4.90;52.80;;;;;;5035857;28;20215;-81
2024/01/02 06:42:20;;;;;;;3.65;1.50;;;5.00;52.80;;;;;;5035970;28;20616;-81
2024/01/02 06:44:47;;;;;;;3.20;1.20;;;5.00;53.60;;;;;;5035137;28;20219;-80
2024/01/02 06:47:14;;;;;;;2.90;1.30;;;5.00;54.50;;;;;;5035907;28;20307;-80
2024/01/02 06:49:44;;;;;;;4.30;2.00;;;5.00;54.90;;;;;;5036106;28;20199;-79
2024/01/02 06:52:11;;;;;;;3.25;1.27;;;5.00;55.10;;;;;;5035675;28;20278;-80
2024/01/02 06:54:38;;;;;;;3.53;1.40;;;5.00;55.20;;;;;;5035766;28;20196;-80
2024/01/02 06:57:05;;;;;;;10.27;1.92;;;5.10;55.70;;;;;;5035171;28;20215;-80
2024/01/02 06:59:33;;;;;;;3.65;1.50;;;5.00;55.40;;;;;;5035605;28;20302;-80
2024/01/02 07:02:00;;;;;;;4.30;2.40;;;5.00;54.90;;;;;;5035583;28;20238;-80
2024/01/02 07:04:27;;;;;;;4.45;2.33;;;5.10;55.50;;;;;;5035523;28;20282;-79
2024/01/02 07:06:54;;;;;;;4.10;2.00;;;5.00;56.10;;;;;;5034106;28;20188;-79
2024/01/02 07:09:21;;;;;;;4.97;2.03;;;5.10;56.20;;;;;;5035156;28;20622;-79
2024/01/02 07:11:48;;;;;;;6.35;2.13;;;5.00;56.20;;;;;;5034963;28;20698;-80
2024/01/02 07:14:15;;;;;;;4.32;1.65;;;5.00;56.10;;;;;;5035252;28;20299;-79
2024/01/02 07:16:43;;;;;;;4.25;2.03;;;5.10;55.80;;;;;;5035420;28;20235;-79
2024/01/02 07:19:10;;;;;;;4.40;2.50;;;5.10;54.60;;;;;;5034494;28;20299;-80
2024/01/02 07:21:37;;;;;;;5.00;2.55;;;5.10;54.40;;;;;;5035204;28;20200;-79
2024/01/02 07:24:04;;;;;;;4.43;2.55;;;5.20;54.60;;;;;;5034894;28;20231;-79
2024/01/02 07:26:31;;;;;;;3.33;1.83;;;5.20;53.80;;;;;;5034446;28;20273;-79
2024/01/02 07:28:58;;;;;;;4.40;2.50;;;5.10;53.70;;;;;;5034415;28;20271;-79
2024/01/02 07:31:26;;;;;;;5.00;1.77;;;5.20;54.10;;;;;;5034521;28;20282;-79
2024/01/02 07:33:54;;;;;;;5.38;1.88;;;5.20;55.00;;;;;;5034541;28;20194;-79
2024/01/02 07:36:21;;;;;;;4.25;2.08;;;5.20;55.50;;;;;;5034925;28;20249;-79
2024/01/02 07:38:48;;;;;;;3.55;2.05;;;5.20;55.80;;;;;;5034744;28;20208;-79
2024/01/02 07:41:15;;;;;;;4.60;2.33;;;5.20;55.50;;;;;;5033920;28;20240;-79
2024/01/02 07:43:41;;;;;;;4.93;2.38;;;5.20;55.40;;;;;;5034269;28;20750;-79
2024/01/02 07:46:08;;;;;;;4.13;2.28;;;5.30;55.50;;;;;;5034541;28;20227;-78
2024/01/02 07:48:35;;;;;;;3.80;2.00;;;5.30;55.70;;;;;;5034733;28;20223;-78
2024/01/02 07:51:05;;;;;;;15.55;5.80;;;5.30;55.90;;;;;;5033739;28;20653;-79
2024/01/02 07:53:33;;;;;;;4.13;1.63;;;5.30;56.10;;;;;;5034130;28;20198;-78
2024/01/02 07:56:03;;;;;;;2.95;1.10;;;5.30;56.20;;;;;;5033775;28;20251;-79
2024/01/02 07:58:30;;;;;;;2.40;1.10;;;5.40;56.30;;;;;;5034179;28;20517;-79
2024/01/02 08:00:56;;;;;;;2.70;1.17;;;5.40;56.40;;;;;;5033962;28;20203;-78
2024/01/02 08:03:23;;;;;;;3.28;1.48;;;5.40;56.30;;;;;;5033515;28;20689;-79
2024/01/02 08:05:50;;;;;;;2.97;1.30;;;5.40;55.70;;;;;;5033841;28;20695;-79
2024/01/02 08:08:19;;;;;;;3.50;1.20;;;5.40;55.60;;;;;;5034100;28;20278;-79
2024/01/02 08:10:45;;;;;;;4.03;1.65;;;5.50;55.30;;;;;;5034168;28;20511;-79
2024/01/02 08:13:12;;;;;;;3.00;1.42;;;5.50;54.70;;;;;;5033843;28;20196;-79
2024/01/02 08:15:39;;;;;;;3.10;1.40;;;5.60;54.50;;;;;;5033341;28;20191;-79
2024/01/02 08:18:07;;;;;;;4.05;1.77;;;5.60;54.50;;;;;;5033115;28;20275;-79
2024/01/02 08:20:33;;;;;;;4.28;2.47;;;5.60;54.40;;;;;;5033133;28;20310;-79
2024/01/02 08:23:00;;;;;;;7.35;4.40;;;5.70;54.10;;;;;;5033736;28;20223;-80
2024/01/02 08:25:29;;;;;;;7.75;3.88;;;5.70;54.60;;;;;;5033735;28;20286;-79
2024/01/02 08:27:55;;;;;;;7.80;3.10;;;5.60;54.70;;;;;;5032239;28;20381;-79
2024/01/02 08:30:22;;;;;;;10.50;4.25;;;5.60;54.70;;;;;;5033483;28;20653;-79
2024/01/02 08:32:50;;;;;;;6.35;3.40;;;5.60;54.90;;;;;;5033652;28;20223;-79
2024/01/02 08:35:17;;;;;;;14.85;2.90;;;5.60;54.50;;;;;;5032638;28;20206;-79
2024/01/02 08:37:44;;;;;;;8.50;2.40;;;5.80;54.20;;;;;;5031231;28;20250;-78
2024/01/02 08:40:12;;;;;;;5.60;3.25;;;5.70;54.10;;;;;;5031099;28;20296;-79
2024/01/02 08:42:41;;;;;;;4.97;2.28;;;5.70;53.70;;;;;;5033127;28;20302;-79
2024/01/02 08:45:10;;;;;;;7.32;3.03;;;5.60;53.40;;;;;;5032885;28;20192;-79
2024/01/02 08:47:38;;;;;;;4.95;2.67;;;5.60;53.30;;;;;;5032808;28;20222;-79
2024/01/02 08:50:06;;;;;;;4.00;2.20;;;5.70;53.30;;;;;;5032472;28;20195;-79
2024/01/02 08:52:35;;;;;;;5.43;2.90;;;5.70;53.20;;;;;;5032527;28;20191;-79
2024/01/02 08:55:05;;;;;;;6.05;4.07;;;5.70;52.80;;;;;;5032381;28;20203;-79
2024/01/02 08:57:32;;;;;;;8.13;5.85;;;5.80;52.50;;;;;;5032643;28;20172;-79
2024/01/02 09:00:00;;;;;;;7.55;4.20;;;5.80;52.10;;;;;;5032263;28;20753;-79
2024/01/02 09:02:27;;;;;;;4.68;2.15;;;5.90;52.10;;;;;;5032551;28;20290;-79
2024/01/02 09:04:54;;;;;;;10.18;2.85;;;6.00;51.10;;;;;;5032440;28;20264;-79
2024/01/02 09:07:21;;;;;;;3.55;1.70;;;6.00;51.20;;;;;;5032292;28;20226;-79
2024/01/02 09:09:48;;;;;;;3.88;2.08;;;6.10;50.10;;;;;;5032320;28;20676;-78
2024/01/02 09:12:16;;;;;;;3.20;1.70;;;6.30;49.10;;;;;;5032299;28;20249;-79
2024/01/02 09:14:43;;;;;;;4.10;2.05;;;6.30;49.40;;;;;;5032247;28;20215;-79
2024/01/02 09:17:12;;;;;;;3.15;1.55;;;6.30;49.20;;;;;;5032508;28;20550;-79
2024/01/02 09:19:38;;;;;;;2.53;1.42;;;6.40;49.20;;;;;;5032223;28;20246;-80
2024/01/02 09:22:05;;;;;;;4.28;1.70;;;6.50;48.90;;;;;;5032044;28;20279;-80
2024/01/02 09:24:32;;;;;;;2.88;1.45;;;6.60;47.20;;;;;;5032240;28;20223;-81
2024/01/02 09:27:01;;;;;;;2.60;1.42;;;6.70;47.20;;;;;;5032083;28;20697;-80
2024/01/02 09:29:28;;;;;;;3.63;2.20;;;6.80;46.70;;;;;;5031865;28;20234;-80
2024/01/02 09:31:55;;;;;;;3.22;1.27;;;7.00;46.70;;;;;;5034857;28;20662;-80
2024/01/02 09:34:24;;;;;;;3.95;1.50;;;7.00;46.60;;;;;;5036328;28;20222;-79
2024/01/02 09:36:52;;;;;;;4.55;1.40;;;7.20;46.40;;;;;;5036537;28;20521;-79
2024/01/02 09:39:19;;;;;;;2.90;1.45;;;7.30;46.50;;;;;;5036353;28;20686;-79
2024/01/02 09:42:04;;;;;;;5.53;2.08;;;7.40;46.60;;;;;;5036103;28;20282;-79
2024/01/02 09:44:50;;;;;;;42.78;20.80;;;7.50;46.30;;;;;;5035511;28;20234;-79
2024/01/02 09:47:32;;;;;;;17.38;9.32;;;7.50;46.20;;;;;;5035734;28;20728;-80
2024/01/02 09:50:08;;;;;;;31.52;17.48;;;7.60;45.70;;;;;;5036061;28;20188;-80
2024/01/02 09:52:51;;;;;;;6.32;4.82;;;7.70;46.30;;;;;;5035756;28;20215;-79
2024/01/02 09:55:26;;;;;;;5.10;2.97;;;7.80;46.00;;;;;;5036266;28;20259;-79
2024/01/02 09:58:13;;;;;;;4.80;2.83;;;7.90;45.60;;;;;;5035607;28;20241;-81
2024/01/02 10:00:53;;;;;;;3.72;2.97;;;8.00;45.60;;;;;;5035969;28;20203;-79
2024/01/02 10:03:48;;;;;;;6.50;4.20;;;8.10;46.30;;;;;;5033633;28;20207;-80
2024/01/02 10:06:37;;;;;;;9.38;8.10;;;8.30;45.80;;;;;;5033602;28;20249;-80
2024/01/02 10:09:29;;;;;;;5.25;2.50;;;8.30;46.20;;;;;;5015104;28;20223;-80
2024/01/02 10:12:04;;;;;;;5.00;2.20;;;8.50;46.40;;;;;;5027425;28;20241;-80
2024/01/02 10:14:41;;;;;;;4.63;2.80;;;8.60;46.60;;;;;;5035399;28;20544;-81
2024/01/02 10:17:18;;;;;;;2.55;1.20;;;8.70;46.90;;;;;;5034810;28;20271;-80
2024/01/02 10:19:55;;;;;;;3.05;1.80;;;8.70;46.90;;;;;;5035223;28;20214;-80
2024/01/02 10:22:29;;;;;;;4.38;2.40;;;8.90;47.20;;;;;;5032253;28;20240;-80
2024/01/02 10:25:06;;;;;;;3.40;1.25;;;8.90;47.70;;;;;;5035199;28;20297;-80
2024/01/02 10:27:43;;;;;;;2.47;0.90;;;9.10;48.90;;;;;;5027973;28;20251;-80
2024/01/02 10:30:12;;;;;;;2.10;1.00;;;9.20;50.80;;;;;;5020415;28;20624;-80
2024/01/02 10:32:50;;;;;;;4.85;1.52;;;9.50;51.30;;;;;;5023490;28;20192;-80
2024/01/02 10:35:27;;;;;;;2.20;0.90;;;9.70;51.40;;;;;;5014162;28;20184;-80
2024/01/02 10:38:08;;;;;;;1.98;0.75;;;9.80;51.40;;;;;;5015027;28;20192;-80
2024/01/02 10:40:38;;;;;;;1.80;0.70;;;10.00;50.50;;;;;;5015087;28;20208;-80
2024/01/02 10:43:18;;;;;;;2.10;0.70;;;10.20;50.50;;;;;;5017284;28;20214;-81
2024/01/02 10:45:57;;;;;;;2.00;0.60;;;10.40;50.40;;;;;;5030815;28;20211;-82
2024/01/02 10:48:45;;;;;;;1.80;0.70;;;10.50;50.30;;;;;;5033597;28;20183;-81
2024/01/02 10:51:23;;;;;;;1.90;0.70;;;10.60;50.30;;;;;;5014293;28;20196;-80
2024/01/02 10:53:58;;;;;;;2.17;1.23;;;10.70;50.40;;;;;;5014185;28;20207;-80
2024/01/02 10:56:37;;;;;;;2.00;0.90;;;10.80;50.30;;;;;;5033678;28;20635;-80
2024/01/02 10:59:09;;;;;;;1.70;0.70;;;10.90;50.20;;;;;;5031752;28;20543;-80
2024/01/02 11:01:41;;;;;;;1.90;0.90;;;11.00;50.50;;;;;;5034419;28;20688;-80
2024/01/02 11:04:18;;;;;;;1.70;0.60;;;11.10;50.10;;;;;;5033595;28;20442;-80
2024/01/02 11:06:51;;;;;;;2.20;0.90;;;11.10;50.00;;;;;;5034411;28;20211;-82
2024/01/02 11:09:26;;;;;;;2.17;1.00;;;11.20;49.80;;;;;;5034228;28;20244;-82
2024/01/02 11:11:55;;;;;;;1.90;0.70;;;11.30;49.70;;;;;;5028906;28;20438;-81
2024/01/02 11:14:25;;;;;;;8.73;0.93;;;11.40;49.30;;;;;;5014015;28;20458;-81
2024/01/02 11:16:56;;;;;;;2.20;0.80;;;11.50;49.10;;;;;;5014070;28;20302;-81
2024/01/02 11:19:32;;;;;;;3.43;0.73;;;11.60;49.10;;;;;;5031724;28;20437;-81
2024/01/02 11:22:06;;;;;;;1.80;0.70;;;11.60;48.60;;;;;;5033677;28;20445;-81
2024/01/02 11:24:40;;;;;;;2.33;0.90;;;11.70;48.20;;;;;;5034280;28;20442;-81
2024/01/02 11:27:08;;;;;;;2.60;0.80;;;11.80;48.00;;;;;;5033011;28;20489;-81
2024/01/02 11:29:37;;;;;;;2.03;0.60;;;11.90;47.80;;;;;;5033791;28;20524;-80
2024/01/02 11:32:10;;;;;;;2.07;0.90;;;12.00;47.60;;;;;;5032925;28;20516;-80
2024/01/02 11:34:57;;;;;;;2.40;1.00;;;12.20;47.40;;;;;;5033175;28;20458;-80
2024/01/02 11:37:36;;;;;;;1.73;0.70;;;12.30;47.20;;;;;;5032556;28;20453;-80
2024/01/02 11:40:20;;;;;;;4.03;0.70;;;12.40;46.70;;;;;;5033279;28;20815;-80
2024/01/02 11:42:57;;;;;;;1.80;0.80;;;12.40;46.30;;;;;;5033236;28;20422;-80
2024/01/02 11:45:27;;;;;;;1.90;0.70;;;12.50;46.70;;;;;;5029591;28;21047;-79
2024/01/02 11:48:11;;;;;;;1.70;0.60;;;12.50;46.20;;;;;;5032524;28;20489;-79
2024/01/02 11:50:51;;;;;;;2.20;0.87;;;12.60;46.20;;;;;;5032265;28;20461;-79
2024/01/02 11:53:29;;;;;;;2.20;0.93;;;12.70;46.40;;;;;;5030395;28;20434;-81
2024/01/02 11:56:05;;;;;;;1.90;0.80;;;12.80;45.50;;;;;;5033704;28;20504;-79
2024/01/02 11:58:41;;;;;;;2.53;1.50;;;12.90;45.50;;;;;;5032950;28;20509;-80
2024/01/02 12:01:17;;;;;;;2.03;0.80;;;13.20;45.50;;;;;;5013707;28;21039;-82
2024/01/02 12:03:55;;;;;;;1.90;0.80;;;13.60;44.50;;;;;;5013250;28;20464;-80
2024/01/02 12:06:29;;;;;;;1.80;0.70;;;14.00;43.20;;;;;;5013223;28;20506;-80
2024/01/02 12:09:04;;;;;;;2.50;0.90;;;14.30;42.50;;;;;;5013498;28;20513;-79
2024/01/02 12:11:38;;;;;;;2.80;1.10;;;14.50;41.70;;;;;;5012775;28;20837;-79
2024/01/02 12:14:17;;;;;;;2.50;1.10;;;14.60;40.80;;;;;;5030914;28;20517;-80
2024/01/02 12:16:48;;;;;;;2.30;0.90;;;14.70;40.60;;;;;;5032800;28;20434;-80
2024/01/02 12:19:19;;;;;;;2.77;1.60;;;14.80;40.50;;;;;;5032733;28;20434;-81
2024/01/02 12:21:47;;;;;;;2.07;0.90;;;14.80;39.70;;;;;;5032157;28;20572;-79
2024/01/02 12:24:16;;;;;;;2.00;0.80;;;14.90;39.80;;;;;;5032717;28;20450;-80
2024/01/02 12:26:47;;;;;;;1.80;0.70;;;15.00;40.00;;;;;;5028410;28;20484;-80
2024/01/02 12:29:21;;;;;;;4.00;1.07;;;15.00;39.20;;;;;;5032454;28;20451;-79
2024/01/02 12:31:53;;;;;;;2.40;0.90;;;15.10;39.40;;;;;;5032243;28;20552;-81
2024/01/02 12:34:27;;;;;;;1.97;0.70;;;15.20;39.60;;;;;;5011731;28;20470;-80
2024/01/02 12:36:59;;;;;;;2.30;0.70;;;15.20;39.80;;;;;;5023033;28;20536;-80
2024/01/02 12:39:33;;;;;;;2.03;0.80;;;15.20;39.00;;;;;;5031876;28;20426;-80
2024/01/02 12:42:08;;;;;;;2.40;1.10;;;15.10;38.60;;;;;;5023060;28;20565;-79
2024/01/02 12:44:37;;;;;;;1.90;0.70;;;15.00;39.20;;;;;;5011262;28;20434;-79
2024/01/02 12:47:09;;;;;;;2.50;1.00;;;15.00;39.60;;;;;;5011414;28;20470;-79
2024/01/02 12:49:41;;;;;;;1.90;0.80;;;14.90;39.80;;;;;;5025385;28;20510;-78
2024/01/02 12:52:13;;;;;;;1.83;0.63;;;14.80;39.60;;;;;;5032266;28;20519;-78
2024/01/02 12:54:44;;;;;;;2.00;0.60;;;14.80;39.90;;;;;;5030915;28;20505;-80
2024/01/02 12:57:14;;;;;;;1.70;0.60;;;14.70;40.50;;;;;;5031992;28;20516;-81
2024/01/02 12:59:43;;;;;;;2.20;1.00;;;14.60;40.80;;;;;;5032011;28;20442;-80
2024/01/02 13:02:12;;;;;;;3.07;1.10;;;14.50;40.50;;;;;;5032448;28;20470;-80
2024/01/02 13:04:39;;;;;;;4.57;0.90;;;14.40;40.60;;;;;;5031364;28;20845;-81
2024/01/02 13:07:07;;;;;;;2.50;0.80;;;14.30;41.10;;;;;;5031950;28;20832;-81